Time;durP1;ratioP1;P1;durP2;ratioP2;P2;SDS_P1;SDS_P2;PMS_P1;PMS_P2;Temp;Humidity;BMP_temperature;BMP_pressure;BME280_temperature;BME280_humidity;BME280_pressure;Samples;Min_cycle;Max_cycle;Signal;HPM_P1;HPM_P2
2022/01/11 00:04:34;;;;;;;24.35;15.93;;;0.60;99.90;;;;;;5651410;22;20050;-77
2022/01/11 00:07:28;;;;;;;27.23;16.60;;;-0.10;99.90;;;;;;5019719;28;20438;-77
2022/01/11 00:16:53;;;;;;;28.20;15.30;;;1.80;99.90;;;;;;4990924;28;20086;-77
2022/01/11 00:25:36;;;;;;;25.08;15.30;;;1.40;99.90;;;;;;4953514;29;20090;-77
2022/01/11 00:28:03;;;;;;;23.75;16.05;;;0.60;99.90;;;;;;4973165;28;20494;-77
2022/01/11 00:30:32;;;;;;;24.70;14.40;;;0.60;99.90;;;;;;4991463;28;20053;-78
2022/01/11 00:33:02;;;;;;;30.42;15.48;;;0.20;99.90;;;;;;4991499;28;20046;-78
2022/01/11 00:35:40;;;;;;;24.27;15.50;;;0.50;99.90;;;;;;5038281;28;20049;-78
2022/01/11 00:38:08;;;;;;;26.27;15.10;;;0.50;99.90;;;;;;5015108;28;20045;-78
2022/01/11 00:40:35;;;;;;;22.88;15.23;;;0.50;99.90;;;;;;5015947;28;20049;-77
2022/01/11 00:43:13;;;;;;;28.40;14.55;;;0.50;99.90;;;;;;5032524;28;20045;-78
2022/01/11 00:45:45;;;;;;;26.20;15.63;;;0.60;99.90;;;;;;5027999;28;20045;-78
2022/01/11 00:48:11;;;;;;;26.48;14.93;;;0.60;99.90;;;;;;5051986;28;20045;-78
2022/01/11 00:50:39;;;;;;;;;;;0.70;99.90;;;;;;5035480;28;20507;-77
2022/01/11 00:53:06;;;;;;;21.50;12.88;;;1.60;99.90;;;;;;5032329;28;19963;-77
2022/01/11 00:55:35;;;;;;;26.23;14.27;;;0.70;99.90;;;;;;5032449;28;20060;-77
2022/01/11 00:58:05;;;;;;;22.58;13.65;;;0.70;99.90;;;;;;5024912;28;20089;-77
2022/01/11 01:00:36;;;;;;;23.27;13.20;;;0.80;99.90;;;;;;5033070;28;20128;-77
2022/01/11 01:03:02;;;;;;;21.58;13.82;;;0.80;99.90;;;;;;5032468;28;20075;-77
2022/01/11 01:05:28;;;;;;;23.38;13.30;;;0.90;99.90;;;;;;5026190;28;20052;-77
2022/01/11 01:07:54;;;;;;;20.75;12.77;;;0.90;99.90;;;;;;5032200;28;20400;-78
2022/01/11 01:12:46;;;;;;;22.92;12.77;;;0.90;99.90;;;;;;5032876;28;19928;-77
2022/01/11 01:15:29;;;;;;;;;;;0.90;99.90;;;;;;5032676;28;20048;-78
2022/01/11 01:18:01;;;;;;;23.02;13.00;;;1.00;99.90;;;;;;5012388;28;19928;-78
2022/01/11 01:20:38;;;;;;;22.02;12.88;;;1.00;99.90;;;;;;5012888;28;20048;-78
2022/01/11 01:27:43;;;;;;;25.88;14.07;;;2.10;99.90;;;;;;5012950;28;20092;-78
2022/01/11 01:30:14;;;;;;;20.17;12.82;;;1.90;99.90;;;;;;4994481;28;20050;-78
2022/01/11 01:36:11;;;;;;;26.50;13.10;;;1.00;99.90;;;;;;5032262;28;20500;-78
2022/01/11 01:38:40;;;;;;;21.35;12.77;;;0.90;99.90;;;;;;5032089;28;20049;-77
2022/01/11 01:41:14;;;;;;;22.73;12.82;;;1.10;99.90;;;;;;5014698;28;20045;-77
2022/01/11 01:43:46;;;;;;;26.30;13.80;;;1.20;99.90;;;;;;5015244;28;20080;-78
2022/01/11 01:46:16;;;;;;;20.88;11.82;;;1.20;99.90;;;;;;5012818;28;20464;-78
2022/01/11 03:40:17;;;;;;;20.45;9.77;;;0.90;99.90;;;;;;4878331;29;20043;-78
2022/01/11 03:42:50;;;;;;;24.40;11.73;;;0.70;99.90;;;;;;4893143;29;20047;-78
2022/01/11 03:47:59;;;;;;;23.30;11.80;;;0.80;99.90;;;;;;5159335;23;20053;-78
2022/01/11 03:50:30;;;;;;;24.65;12.50;;;0.90;99.90;;;;;;4987769;28;20414;-78
2022/01/11 03:53:33;;;;;;;28.85;13.32;;;0.70;99.90;;;;;;5013180;28;20481;-78
2022/01/11 03:56:12;;;;;;;28.77;12.93;;;0.70;99.90;;;;;;4996634;28;20054;-77
2022/01/11 03:58:38;;;;;;;23.92;12.68;;;0.70;99.90;;;;;;4993905;28;20089;-78
2022/01/11 04:01:07;;;;;;;24.15;11.75;;;0.70;99.90;;;;;;5014173;28;20401;-78
2022/01/11 04:03:33;;;;;;;22.80;12.48;;;0.70;99.90;;;;;;4996730;28;20050;-78
2022/01/11 04:06:07;;;;;;;21.13;12.10;;;0.70;99.90;;;;;;4997322;28;20450;-78
2022/01/11 04:08:35;;;;;;;;;;;0.80;99.90;;;;;;5014548;28;20046;-78
2022/01/11 04:11:05;;;;;;;23.55;11.25;;;0.70;99.90;;;;;;4980099;28;20385;-78
2022/01/11 04:13:35;;;;;;;23.08;11.18;;;0.90;99.90;;;;;;4995671;28;20474;-78
2022/01/11 04:16:08;;;;;;;23.50;11.68;;;0.90;99.90;;;;;;4996521;28;20050;-78
2022/01/11 04:18:39;;;;;;;24.77;12.73;;;0.90;99.90;;;;;;4995164;28;20057;-78
2022/01/11 04:21:06;;;;;;;29.30;12.43;;;2.50;99.90;;;;;;4979273;28;20081;-78
2022/01/11 04:23:35;;;;;;;22.73;12.32;;;0.20;99.90;;;;;;4995809;28;20054;-77
2022/01/11 04:26:11;;;;;;;24.27;11.45;;;1.00;99.90;;;;;;4992175;28;20054;-78
2022/01/11 04:28:53;;;;;;;21.23;11.15;;;1.10;99.90;;;;;;5013172;28;20046;-78
2022/01/11 04:31:33;;;;;;;20.52;11.00;;;1.10;99.90;;;;;;4995849;28;20050;-78
2022/01/11 04:34:02;;;;;;;25.75;13.65;;;1.10;99.90;;;;;;4979447;28;20497;-78
2022/01/11 04:36:33;;;;;;;20.75;11.05;;;1.00;99.90;;;;;;5014068;28;20129;-78
2022/01/11 04:38:59;;;;;;;25.55;12.30;;;1.00;99.90;;;;;;5013751;28;20509;-78
2022/01/11 04:41:27;;;;;;;21.98;11.73;;;1.00;99.90;;;;;;5012175;28;20046;-78
2022/01/11 04:44:02;;;;;;;22.30;11.27;;;1.00;99.90;;;;;;4995347;28;20045;-78
2022/01/11 04:46:31;;;;;;;25.92;11.35;;;2.60;99.90;;;;;;5012919;28;20053;-78
2022/01/11 04:49:00;;;;;;;26.95;12.70;;;;;;;;;;4995484;28;20060;-78
2022/01/11 04:51:26;;;;;;;28.27;12.52;;;1.00;99.90;;;;;;5013208;28;20198;-78
2022/01/11 04:53:52;;;;;;;27.48;13.57;;;1.00;99.90;;;;;;5010800;28;20041;-78
2022/01/11 04:56:21;;;;;;;24.52;11.52;;;0.90;99.90;;;;;;4992937;28;20474;-78
2022/01/11 04:58:47;;;;;;;28.63;12.30;;;1.10;99.90;;;;;;4976474;28;20042;-78
2022/01/11 05:01:13;;;;;;;;;;;1.00;99.90;;;;;;4993678;28;20042;-78
2022/01/11 05:03:41;;;;;;;28.30;12.35;;;1.00;99.90;;;;;;4976150;28;20386;-77
2022/01/11 05:06:07;;;;;;;25.05;11.90;;;0.90;99.90;;;;;;4976115;28;20093;-78
2022/01/11 05:08:33;;;;;;;;;;;1.70;99.90;;;;;;4993296;28;20057;-78
2022/01/11 05:11:01;;;;;;;26.83;11.32;;;1.40;99.90;;;;;;4975679;28;20005;-78
2022/01/11 05:13:34;;;;;;;29.35;13.40;;;1.00;99.90;;;;;;4993150;28;20050;-77
2022/01/11 05:16:02;;;;;;;23.15;11.90;;;1.00;99.90;;;;;;4993113;28;20050;-77
2022/01/11 05:18:54;;;;;;;28.98;12.85;;;0.40;99.90;;;;;;4993111;28;20410;-78
2022/01/11 05:21:19;;;;;;;30.77;12.73;;;1.50;99.90;;;;;;4992304;28;20470;-78
2022/01/11 05:23:45;;;;;;;28.55;12.50;;;0.90;99.90;;;;;;5012660;28;20046;-78
2022/01/11 05:26:11;;;;;;;;;;;1.20;99.90;;;;;;4995409;28;20056;-78
2022/01/11 05:28:36;;;;;;;22.20;12.07;;;1.60;99.90;;;;;;5012707;28;19921;-79
2022/01/11 05:31:03;;;;;;;;;;;1.10;99.90;;;;;;4992947;28;20508;-78
2022/01/11 05:33:49;;;;;;;29.93;11.93;;;0.80;99.90;;;;;;5012174;28;20020;-78
2022/01/11 05:36:14;;;;;;;30.05;12.80;;;1.00;99.90;;;;;;5010313;28;20061;-79
2022/01/11 05:38:40;;;;;;;;;;;1.00;99.90;;;;;;4993000;28;20050;-79
2022/01/11 05:41:11;;;;;;;22.60;10.55;;;1.80;99.90;;;;;;4974756;28;19922;-79
2022/01/11 05:43:37;;;;;;;;;;;1.00;99.90;;;;;;4975394;28;20045;-79
2022/01/11 05:46:06;;;;;;;25.60;12.63;;;1.00;99.90;;;;;;4993869;28;20004;-80
2022/01/11 05:48:35;;;;;;;25.45;11.43;;;1.00;99.90;;;;;;4995351;28;20430;-79
2022/01/11 05:51:00;;;;;;;26.20;11.85;;;1.10;99.90;;;;;;4989627;28;20049;-79
2022/01/11 05:53:35;;;;;;;;;;;1.10;99.90;;;;;;5006430;28;20045;-78
2022/01/11 05:56:01;;;;;;;24.00;12.30;;;1.80;99.90;;;;;;4991332;28;19921;-82
2022/01/11 05:58:39;;;;;;;;;;;0.90;99.90;;;;;;5015578;28;20232;-79
2022/01/11 06:01:06;;;;;;;29.00;11.48;;;1.30;99.90;;;;;;5013271;28;19922;-77
2022/01/11 06:04:24;;;;;;;;;;;1.10;99.90;;;;;;5016847;28;20405;-77
2022/01/11 06:06:51;;;;;;;31.85;13.00;;;1.00;99.90;;;;;;4949676;29;19930;-73
2022/01/11 06:09:17;;;;;;;28.23;12.63;;;0.70;99.90;;;;;;4948089;28;20119;-74
2022/01/11 06:11:43;;;;;;;;;;;0.90;99.90;;;;;;4937480;29;20047;-79
2022/01/11 06:14:27;;;;;;;28.10;12.30;;;0.90;99.90;;;;;;4942343;28;19930;-75
2022/01/11 06:16:53;;;;;;;29.08;13.80;;;0.70;99.90;;;;;;4951613;28;20043;-74
2022/01/11 06:19:18;;;;;;;;;;;0.80;99.90;;;;;;4938732;29;20527;-78
2022/01/11 06:21:44;;;;;;;31.98;13.68;;;0.90;99.90;;;;;;4998595;28;19921;-80
2022/01/11 06:24:09;;;;;;;;;;;0.90;99.90;;;;;;5013022;28;20054;-79
2022/01/11 06:37:02;;;;;;;28.80;13.63;;;0.70;99.90;;;;;;4976802;28;20124;-80
2022/01/11 06:39:36;;;;;;;36.65;13.93;;;1.10;99.90;;;;;;4950266;28;20126;-80
2022/01/11 06:42:03;;;;;;;28.15;12.70;;;1.00;99.90;;;;;;4965085;28;20058;-89
2022/01/11 06:44:29;;;;;;;27.63;13.57;;;1.00;99.90;;;;;;4965759;28;20102;-82
2022/01/11 06:46:54;;;;;;;;;;;0.90;99.90;;;;;;4965583;28;20466;-81
2022/01/11 06:49:20;;;;;;;31.25;13.20;;;0.90;99.90;;;;;;4959440;28;19932;-88
2022/01/11 06:51:45;;;;;;;;;;;1.00;99.90;;;;;;4958924;28;20095;-79
2022/01/11 06:54:12;;;;;;;29.45;14.02;;;1.00;99.90;;;;;;4955498;28;19988;-74
2022/01/11 06:56:38;;;;;;;27.48;12.18;;;1.00;99.90;;;;;;4973248;28;20118;-81
2022/01/11 06:59:03;;;;;;;;;;;1.10;99.90;;;;;;4982350;28;20422;-84
2022/01/11 07:01:29;;;;;;;23.33;11.05;;;1.20;99.90;;;;;;4960908;28;19930;-80
2022/01/11 07:03:55;;;;;;;;;;;1.30;99.90;;;;;;4957984;28;20082;-79
2022/01/11 07:06:26;;;;;;;25.33;12.38;;;1.30;99.90;;;;;;4975301;28;19930;-81
2022/01/11 07:08:52;;;;;;;26.67;12.43;;;1.20;99.90;;;;;;4958373;28;20046;-80
2022/01/11 07:11:18;;;;;;;;;;;1.20;99.90;;;;;;4959054;28;20486;-76
2022/01/11 07:13:44;;;;;;;26.83;12.13;;;1.30;99.90;;;;;;4958822;28;20040;-78
2022/01/11 07:16:09;;;;;;;;;;;1.30;99.90;;;;;;4972441;28;20836;-78
2022/01/11 07:18:37;;;;;;;29.77;13.00;;;1.30;99.90;;;;;;4977439;28;20377;-78
2022/01/11 07:21:02;;;;;;;27.73;12.55;;;1.20;99.90;;;;;;4995410;28;20050;-76
2022/01/11 07:23:28;;;;;;;;;;;1.20;99.90;;;;;;4977173;28;20042;-83
2022/01/11 07:25:53;;;;;;;31.60;13.95;;;1.20;99.90;;;;;;4978205;28;19922;-79
2022/01/11 07:28:20;;;;;;;;;;;1.10;99.90;;;;;;4973952;28;20042;-77
2022/01/11 07:30:46;;;;;;;29.05;11.93;;;1.20;99.90;;;;;;4989525;28;19921;-75
2022/01/11 07:33:11;;;;;;;;;;;1.30;99.90;;;;;;4961024;28;20050;-76
2022/01/11 07:35:37;;;;;;;29.75;13.75;;;1.20;99.90;;;;;;4958248;28;20322;-74
2022/01/11 07:38:03;;;;;;;;;;;1.30;99.90;;;;;;4975634;28;20126;-78
2022/01/11 07:40:28;;;;;;;30.13;12.52;;;1.30;99.90;;;;;;4958429;28;20061;-80
2022/01/11 07:42:54;;;;;;;;;;;1.30;99.90;;;;;;4958543;28;20487;-78
2022/01/11 07:45:20;;;;;;;36.88;14.48;;;1.20;99.90;;;;;;4965419;28;19926;-78
2022/01/11 07:47:45;;;;;;;;;;;1.30;99.90;;;;;;4978212;28;20034;-79
2022/01/11 07:50:12;;;;;;;26.88;13.40;;;1.20;99.90;;;;;;4984437;28;19968;-78
2022/01/11 07:52:38;;;;;;;31.23;15.10;;;2.00;99.90;;;;;;4972581;28;20077;-76
2022/01/11 07:55:04;;;;;;;;;;;1.20;99.90;;;;;;4957148;28;20074;-78
2022/01/11 07:57:30;;;;;;;31.63;14.75;;;1.10;99.90;;;;;;4956106;28;19925;-77
2022/01/11 07:59:55;;;;;;;;;;;1.20;99.90;;;;;;4961067;28;20034;-77
2022/01/11 08:02:23;;;;;;;29.30;13.43;;;1.20;99.90;;;;;;4977063;28;20448;-77
2022/01/11 08:04:49;;;;;;;34.47;13.98;;;1.20;99.90;;;;;;4976531;28;20054;-77
2022/01/11 08:07:15;;;;;;;33.25;14.05;;;1.10;99.90;;;;;;4977122;28;20089;-77
2022/01/11 08:09:41;;;;;;;;;;;1.20;99.90;;;;;;4977138;28;20078;-76
2022/01/11 08:12:07;;;;;;;38.35;15.82;;;1.30;99.90;;;;;;4993061;28;20036;-77
2022/01/11 08:14:33;;;;;;;32.13;14.40;;;1.10;99.90;;;;;;4992065;28;20046;-76
2022/01/11 08:16:58;;;;;;;;;;;1.10;99.90;;;;;;4974762;28;20379;-76
2022/01/11 08:19:25;;;;;;;32.78;15.88;;;1.20;99.90;;;;;;4993287;28;19972;-77
2022/01/11 08:21:54;;;;;;;28.95;14.68;;;1.20;99.90;;;;;;4994147;28;20049;-77
2022/01/11 08:24:23;;;;;;;31.08;13.30;;;1.00;99.90;;;;;;4976875;28;20093;-76
2022/01/11 08:26:51;;;;;;;32.50;15.07;;;1.30;99.90;;;;;;4976241;28;20046;-77
2022/01/11 08:29:20;;;;;;;31.73;13.88;;;1.30;99.90;;;;;;4993940;28;20050;-77
2022/01/11 08:31:46;;;;;;;26.08;12.65;;;1.10;99.90;;;;;;4994219;28;20055;-77
2022/01/11 08:34:15;;;;;;;27.55;12.68;;;0.10;99.90;;;;;;4991406;28;20042;-77
2022/01/11 08:36:44;;;;;;;29.58;13.55;;;0.00;99.90;;;;;;4976971;28;20486;-77
2022/01/11 08:39:34;;;;;;;35.10;15.70;;;1.20;99.90;;;;;;4987110;28;20046;-77
2022/01/11 08:42:12;;;;;;;35.42;15.30;;;0.20;99.90;;;;;;4956796;28;20499;-75
2022/01/11 08:44:49;;;;;;;38.35;16.27;;;1.20;99.90;;;;;;4972932;28;20047;-77
2022/01/11 08:47:18;;;;;;;33.58;14.43;;;1.10;99.90;;;;;;4992640;28;20085;-76
2022/01/11 08:49:45;;;;;;;28.48;13.85;;;1.20;99.90;;;;;;5000374;28;20149;-75
2022/01/11 09:03:23;;;;;;;32.60;14.43;;;1.40;99.90;;;;;;5693101;23;20053;-73
2022/01/11 09:05:52;;;;;;;34.10;15.88;;;0.60;99.90;;;;;;5030639;28;20052;-73
2022/01/11 09:08:19;;;;;;;33.47;15.00;;;1.30;99.90;;;;;;5014406;28;20042;-76
2022/01/11 09:10:45;;;;;;;32.45;12.35;;;1.20;99.90;;;;;;5015267;28;20484;-79
2022/01/11 09:13:11;;;;;;;;;;;1.30;99.90;;;;;;5015673;28;20045;-77
2022/01/11 09:15:46;;;;;;;29.60;13.93;;;1.30;99.90;;;;;;5032558;28;20335;-80
2022/01/11 09:18:12;;;;;;;25.48;11.80;;;1.50;99.90;;;;;;5014439;28;20100;-79
2022/01/11 09:20:38;;;;;;;30.00;13.35;;;1.50;99.90;;;;;;5032151;28;20037;-74
2022/01/11 09:23:04;;;;;;;28.77;12.43;;;1.50;99.90;;;;;;5032093;28;20041;-78
2022/01/11 09:25:30;;;;;;;;;;;1.50;99.90;;;;;;5002671;28;20040;-77
2022/01/11 09:27:55;;;;;;;35.63;14.40;;;1.50;99.90;;;;;;5013232;28;19974;-76
2022/01/11 09:30:21;;;;;;;;;;;1.50;99.90;;;;;;5003192;28;20145;-76
2022/01/11 09:32:47;;;;;;;30.08;14.05;;;1.40;99.90;;;;;;5032402;28;19943;-76
2022/01/11 09:35:14;;;;;;;29.00;12.88;;;1.50;99.90;;;;;;5014833;28;20131;-76
2022/01/11 09:37:46;;;;;;;32.92;15.38;;;1.50;99.90;;;;;;5014587;28;20049;-77
2022/01/11 09:40:12;;;;;;;36.92;15.75;;;1.60;99.90;;;;;;5012234;28;20091;-76
2022/01/11 09:42:41;;;;;;;35.25;15.10;;;1.50;99.90;;;;;;4994803;28;20091;-79
2022/01/11 09:45:09;;;;;;;34.88;13.95;;;1.40;99.90;;;;;;5029115;28;20056;-77
2022/01/11 09:47:40;;;;;;;39.47;16.48;;;1.40;99.90;;;;;;5014641;28;20607;-80
2022/01/11 09:50:08;;;;;;;39.47;14.70;;;1.40;99.90;;;;;;5014038;28;20045;-76
2022/01/11 09:52:34;;;;;;;32.05;15.98;;;1.60;99.90;;;;;;5015026;28;20056;-75
2022/01/11 09:55:14;;;;;;;31.30;14.73;;;1.60;99.90;;;;;;5014074;28;20042;-81
2022/01/11 09:57:42;;;;;;;32.53;14.68;;;1.60;99.90;;;;;;5013824;28;20124;-80
2022/01/11 10:00:11;;;;;;;38.42;15.63;;;1.60;99.90;;;;;;5014258;28;20046;-92
2022/01/11 10:02:37;;;;;;;33.97;14.52;;;1.60;99.90;;;;;;5019940;28;20438;-87
2022/01/11 10:13:41;;;;;;;33.33;15.63;;;2.40;99.90;;;;;;5695852;22;20042;-77
2022/01/11 10:48:09;;;;;;;35.17;16.13;;;1.80;99.90;;;;;;5339789;23;20051;-76
2022/01/11 10:50:37;;;;;;;37.50;16.52;;;1.90;99.90;;;;;;4979198;28;20418;-79
2022/01/11 10:53:11;;;;;;;35.22;16.25;;;2.00;99.90;;;;;;4977804;28;20521;-80
2022/01/11 10:55:36;;;;;;;33.92;15.90;;;2.60;99.90;;;;;;4979003;28;20096;-80
2022/01/11 10:58:03;;;;;;;;;;;2.00;99.90;;;;;;4979134;28;20042;-76
2022/01/11 11:00:46;;;;;;;36.20;16.83;;;2.00;99.90;;;;;;5006976;28;20300;-78
2022/01/11 11:03:16;;;;;;;34.00;16.30;;;2.00;99.90;;;;;;5003569;28;20133;-76
2022/01/11 11:05:53;;;;;;;36.20;15.75;;;2.10;99.90;;;;;;4995858;28;20046;-78
2022/01/11 11:08:33;;;;;;;33.25;16.40;;;2.20;99.90;;;;;;4975903;28;20043;-81
2022/01/11 11:11:00;;;;;;;32.13;16.10;;;2.20;99.90;;;;;;4997188;28;20073;-81
2022/01/11 11:13:34;;;;;;;37.00;15.82;;;2.20;99.90;;;;;;4994215;28;20473;-78
2022/01/11 11:16:16;;;;;;;33.10;16.10;;;2.30;99.90;;;;;;4977959;28;20050;-78
2022/01/11 11:18:46;;;;;;;33.13;15.60;;;2.30;99.90;;;;;;4980887;28;20076;-75
2022/01/11 11:21:19;;;;;;;31.30;15.90;;;2.30;99.90;;;;;;5006393;28;20042;-77
2022/01/11 11:23:45;;;;;;;33.83;14.68;;;2.30;99.90;;;;;;5003283;28;20042;-76
2022/01/11 11:26:14;;;;;;;34.28;15.27;;;2.40;99.90;;;;;;4997150;28;20050;-82
2022/01/11 11:28:41;;;;;;;38.65;16.70;;;2.50;99.90;;;;;;5010599;28;20180;-82
2022/01/11 11:31:06;;;;;;;34.33;16.17;;;2.50;99.90;;;;;;5013157;28;20144;-78
2022/01/11 11:33:33;;;;;;;;;;;2.50;99.90;;;;;;5014730;28;20533;-78
2022/01/11 11:36:00;;;;;;;30.75;14.07;;;2.50;99.90;;;;;;4991484;28;19948;-78
2022/01/11 11:38:31;;;;;;;32.28;14.35;;;2.50;99.90;;;;;;5002848;28;20069;-78
2022/01/11 11:43:33;;;;;;;31.95;14.55;;;2.90;99.90;;;;;;4131393;26;20474;-78
2022/01/11 11:45:59;;;;;;;33.33;14.68;;;2.80;99.90;;;;;;4977059;28;20086;-78
2022/01/11 11:48:26;;;;;;;;;;;4.20;99.90;;;;;;4977701;28;20038;-78
2022/01/11 11:58:22;;;;;;;29.48;12.73;;;2.90;99.90;;;;;;4993254;28;20101;-77
2022/01/11 12:14:03;;;;;;;26.70;10.95;;;2.50;99.90;;;;;;5013602;28;20475;-77
2022/01/11 12:20:51;;;;;;;24.90;12.23;;;4.30;99.90;;;;;;5011897;28;20081;-77
2022/01/11 12:58:09;;;;;;;21.42;11.18;;;3.30;99.90;;;;;;5960140;23;20105;-78
2022/01/11 13:03:25;;;;;;;23.02;11.70;;;3.40;99.90;;;;;;5046779;28;19921;-78
2022/01/11 13:17:08;;;;;;;26.35;11.20;;;3.30;99.90;;;;;;5009151;28;20050;-79
2022/01/11 13:19:42;;;;;;;;;;;3.30;99.90;;;;;;4995439;28;20045;-78
2022/01/11 13:22:11;;;;;;;25.42;11.27;;;3.40;99.90;;;;;;4978862;28;20008;-78
2022/01/11 13:24:47;;;;;;;22.48;11.25;;;3.40;99.90;;;;;;4995447;28;20466;-78
2022/01/11 13:27:14;;;;;;;21.30;10.33;;;3.50;99.90;;;;;;4993969;28;20046;-80
2022/01/11 13:29:41;;;;;;;22.75;11.15;;;3.60;99.90;;;;;;5007818;28;20715;-80
2022/01/11 13:32:08;;;;;;;23.73;10.85;;;3.60;99.90;;;;;;4994015;28;20052;-83
2022/01/11 13:34:36;;;;;;;24.55;12.38;;;3.60;99.90;;;;;;4994853;28;20041;-79
2022/01/11 13:37:06;;;;;;;23.48;11.25;;;3.80;99.90;;;;;;5012629;28;20129;-80
2022/01/11 13:39:37;;;;;;;23.42;12.05;;;3.80;99.90;;;;;;4995733;28;20143;-81
2022/01/11 13:42:09;;;;;;;24.80;11.30;;;3.80;99.90;;;;;;4994891;28;20049;-81
2022/01/11 13:44:47;;;;;;;21.40;10.52;;;3.90;99.90;;;;;;4990076;28;20046;-80
2022/01/11 13:47:19;;;;;;;23.13;10.95;;;4.00;99.90;;;;;;4977551;28;20050;-79
2022/01/11 13:50:02;;;;;;;25.67;11.60;;;4.10;99.90;;;;;;4992724;28;20042;-79
2022/01/11 13:52:29;;;;;;;22.73;10.93;;;4.00;99.90;;;;;;4975735;28;20093;-83
2022/01/11 13:54:58;;;;;;;24.13;11.63;;;4.00;99.90;;;;;;4975563;28;20074;-80
2022/01/11 13:57:31;;;;;;;20.15;11.20;;;4.00;99.90;;;;;;4975183;28;20046;-79
2022/01/11 14:00:00;;;;;;;25.25;11.30;;;4.60;99.90;;;;;;4987669;28;20519;-81
2022/01/11 14:02:26;;;;;;;;;;;4.10;99.90;;;;;;5013077;28;20136;-83
2022/01/11 14:04:59;;;;;;;22.07;10.00;;;4.00;99.90;;;;;;4992790;28;19921;-81
2022/01/11 14:07:40;;;;;;;27.95;12.00;;;4.20;99.90;;;;;;4981490;28;20081;-84
2022/01/11 14:10:14;;;;;;;25.27;10.35;;;5.40;99.90;;;;;;4989938;28;20108;-79
2022/01/11 14:12:46;;;;;;;23.80;10.23;;;4.80;99.90;;;;;;5011440;28;20123;-81
2022/01/11 14:15:14;;;;;;;25.63;10.45;;;4.40;99.90;;;;;;5026665;28;20081;-79
2022/01/11 14:17:40;;;;;;;19.73;11.10;;;4.50;99.90;;;;;;5033253;28;20116;-80
2022/01/11 14:20:07;;;;;;;;;;;4.40;99.90;;;;;;5036037;28;20160;-83
2022/01/11 14:22:35;;;;;;;21.85;11.05;;;4.40;99.90;;;;;;5035903;28;20344;-78
2022/01/11 14:25:01;;;;;;;19.70;9.27;;;4.40;99.90;;;;;;5017205;28;20053;-79
2022/01/11 14:27:28;;;;;;;;;;;4.20;99.90;;;;;;5018092;28;20048;-80
2022/01/11 14:30:00;;;;;;;20.33;10.20;;;4.20;99.90;;;;;;5018129;28;19921;-78
2022/01/11 14:32:29;;;;;;;18.70;10.55;;;4.20;99.90;;;;;;5002912;28;20053;-78
2022/01/11 14:34:56;;;;;;;21.30;10.27;;;4.30;99.90;;;;;;5019016;28;20049;-76
2022/01/11 14:37:23;;;;;;;19.92;9.77;;;4.50;99.90;;;;;;5006788;28;20140;-77
2022/01/11 14:39:57;;;;;;;18.65;10.40;;;4.30;99.90;;;;;;5013953;28;20041;-76
2022/01/11 14:42:33;;;;;;;20.92;10.38;;;4.10;99.90;;;;;;5005506;28;20513;-82
2022/01/11 14:45:10;;;;;;;18.38;9.23;;;4.00;99.90;;;;;;5029210;28;20052;-78
2022/01/11 14:47:48;;;;;;;22.35;10.30;;;4.10;99.90;;;;;;5033962;28;20101;-81
2022/01/11 14:50:27;;;;;;;21.27;9.82;;;4.10;99.90;;;;;;4997940;28;20493;-77
2022/01/11 14:53:08;;;;;;;19.90;9.32;;;4.10;99.90;;;;;;5002847;28;20044;-79
2022/01/11 14:55:55;;;;;;;21.80;10.45;;;4.00;99.90;;;;;;5009509;28;20111;-76
2022/01/11 14:58:43;;;;;;;19.48;10.15;;;4.10;99.90;;;;;;5005410;28;20101;-78
2022/01/11 15:01:17;;;;;;;19.67;10.18;;;4.10;99.90;;;;;;4986456;28;20594;-82
2022/01/11 15:03:50;;;;;;;21.95;10.15;;;4.00;99.90;;;;;;5015949;28;20049;-80
2022/01/11 15:06:23;;;;;;;24.67;11.05;;;4.10;99.90;;;;;;5015254;28;20064;-80
2022/01/11 15:08:54;;;;;;;23.02;11.20;;;4.00;99.90;;;;;;5016863;28;20049;-79
2022/01/11 15:11:29;;;;;;;21.25;10.90;;;4.00;99.90;;;;;;5016975;28;20052;-75
2022/01/11 15:13:58;;;;;;;22.45;10.57;;;4.10;99.90;;;;;;5013193;28;20390;-77
2022/01/11 15:16:26;;;;;;;23.00;10.57;;;4.00;99.90;;;;;;5016368;28;20041;-77
2022/01/11 15:18:52;;;;;;;24.10;11.55;;;4.00;99.90;;;;;;5016839;28;20119;-78
2022/01/11 15:21:19;;;;;;;;;;;3.90;99.90;;;;;;5032444;28;20500;-79
2022/01/11 15:24:02;;;;;;;19.40;9.32;;;5.20;99.90;;;;;;4969040;28;19920;-76
2022/01/11 15:26:30;;;;;;;18.40;9.65;;;5.40;99.90;;;;;;5011072;28;20045;-78
2022/01/11 15:28:58;;;;;;;20.98;11.32;;;4.80;99.90;;;;;;5009640;28;20051;-81
2022/01/11 15:31:25;;;;;;;20.27;10.20;;;3.90;99.90;;;;;;5016510;28;20049;-74
2022/01/11 15:33:51;;;;;;;19.13;9.65;;;3.90;99.90;;;;;;5035409;28;20157;-81
2022/01/11 15:36:17;;;;;;;21.90;10.98;;;3.90;99.90;;;;;;5033637;28;20078;-81
2022/01/11 15:38:46;;;;;;;;;;;3.90;99.90;;;;;;5034569;28;20033;-80
2022/01/11 15:41:13;;;;;;;21.40;10.70;;;4.10;99.90;;;;;;5015149;28;20379;-81
2022/01/11 15:43:40;;;;;;;17.55;9.35;;;3.90;99.90;;;;;;5034819;28;20033;-80
2022/01/11 15:46:07;;;;;;;19.13;9.98;;;3.90;99.90;;;;;;5015708;28;20045;-76
2022/01/11 15:48:56;;;;;;;17.85;9.77;;;3.80;99.90;;;;;;5015654;28;20041;-78
2022/01/11 15:51:34;;;;;;;18.13;9.27;;;3.80;99.90;;;;;;5032495;28;20418;-82
2022/01/11 15:54:11;;;;;;;22.10;9.60;;;3.90;99.90;;;;;;5015927;28;20396;-74
2022/01/11 15:56:37;;;;;;;18.42;10.10;;;3.90;99.90;;;;;;5033319;28;20045;-78
2022/01/11 15:59:05;;;;;;;21.50;10.45;;;3.90;99.90;;;;;;5015532;28;20053;-80
2022/01/11 16:01:44;;;;;;;20.30;10.50;;;3.90;99.90;;;;;;5033907;28;20053;-83
2022/01/11 16:04:12;;;;;;;18.00;9.68;;;3.90;99.90;;;;;;5015741;28;20060;-74
2022/01/11 16:06:38;;;;;;;24.00;10.25;;;4.20;99.90;;;;;;5038121;28;20053;-76
2022/01/11 16:09:04;;;;;;;;;;;3.90;99.90;;;;;;5054480;28;20085;-79
2022/01/11 16:11:30;;;;;;;18.67;9.15;;;4.00;99.90;;;;;;5017013;28;19996;-77
2022/01/11 16:13:55;;;;;;;;;;;4.00;99.90;;;;;;5020656;28;20392;-76
2022/01/11 16:16:21;;;;;;;20.33;9.45;;;4.90;99.90;;;;;;5035742;28;19931;-86
2022/01/11 16:18:47;;;;;;;;;;;3.80;99.90;;;;;;5024291;28;20040;-90
2022/01/11 16:21:27;;;;;;;20.10;9.18;;;3.80;99.90;;;;;;5030214;28;19921;-89
2022/01/11 16:23:52;;;;;;;17.27;9.10;;;3.80;99.90;;;;;;5014164;28;20053;-92
2022/01/11 16:26:42;;;;;;;;;;;3.80;99.90;;;;;;5012497;28;20052;-82
2022/01/11 16:29:09;;;;;;;18.58;8.90;;;3.70;99.90;;;;;;5012337;28;19964;-84
2022/01/11 16:35:16;;;;;;;19.85;9.73;;;3.70;99.90;;;;;;4958192;28;20062;-76
2022/01/11 16:37:42;;;;;;;;;;;3.90;99.90;;;;;;4968560;28;20479;-74
2022/01/11 16:40:19;;;;;;;17.40;9.25;;;3.80;99.90;;;;;;4997865;28;19921;-79
2022/01/11 16:42:48;;;;;;;16.40;8.65;;;3.80;99.90;;;;;;5014027;28;20124;-76
2022/01/11 16:45:17;;;;;;;16.60;8.98;;;3.90;99.90;;;;;;5014164;28;20053;-77
2022/01/11 16:47:44;;;;;;;16.98;8.50;;;3.90;99.90;;;;;;5015767;28;20152;-80
2022/01/11 16:50:11;;;;;;;18.10;9.32;;;4.40;99.90;;;;;;5031722;28;20047;-75
2022/01/11 16:52:53;;;;;;;16.80;8.70;;;4.00;99.90;;;;;;5014285;28;20469;-78
2022/01/11 16:55:31;;;;;;;17.17;9.90;;;3.90;99.90;;;;;;5032093;28;20050;-82
2022/01/11 16:57:57;;;;;;;21.67;10.05;;;3.90;99.90;;;;;;5014610;28;20172;-80
2022/01/11 17:07:14;;;;;;;20.17;9.63;;;4.80;99.90;;;;;;4980600;28;20041;-87
2022/01/11 17:13:35;;;;;;;21.00;10.43;;;4.90;99.90;;;;;;4960118;28;20057;-86
2022/01/11 17:16:07;;;;;;;20.83;10.18;;;4.80;99.90;;;;;;4956826;28;20520;-83
2022/01/11 17:18:42;;;;;;;18.52;10.02;;;3.90;99.90;;;;;;4957002;28;20077;-84
2022/01/11 17:21:21;;;;;;;16.83;9.73;;;3.90;99.90;;;;;;4955118;28;20145;-88
2022/01/11 17:23:47;;;;;;;19.55;9.90;;;4.00;99.90;;;;;;4941300;28;20038;-82
2022/01/11 17:26:12;;;;;;;;;;;4.00;99.90;;;;;;4954687;28;20053;-82
2022/01/11 17:28:50;;;;;;;18.70;9.80;;;4.10;99.90;;;;;;4964986;28;20369;-82
2022/01/11 17:31:15;;;;;;;20.42;10.27;;;4.00;99.90;;;;;;4993584;28;20038;-76
2022/01/11 17:33:43;;;;;;;;;;;4.00;99.90;;;;;;4993785;28;20371;-79
2022/01/11 17:36:11;;;;;;;17.95;9.70;;;5.10;99.90;;;;;;4975211;28;20694;-83
2022/01/11 17:38:46;;;;;;;21.92;10.43;;;4.00;99.90;;;;;;4975851;28;20404;-77
2022/01/11 17:41:12;;;;;;;;;;;4.00;99.90;;;;;;4992646;28;20038;-77
2022/01/11 17:43:38;;;;;;;23.40;10.82;;;3.90;99.90;;;;;;4991478;28;19926;-80
2022/01/11 17:46:04;;;;;;;;;;;4.00;99.90;;;;;;4974350;28;20065;-88
2022/01/11 17:48:29;;;;;;;21.90;10.35;;;4.00;99.90;;;;;;4958368;28;20306;-83
2022/01/11 17:50:55;;;;;;;;;;;3.90;99.90;;;;;;4961533;28;20467;-80
2022/01/11 17:53:20;;;;;;;25.60;12.23;;;3.80;99.90;;;;;;4986402;28;20300;-79
2022/01/11 17:55:50;;;;;;;;;;;3.90;99.90;;;;;;4987509;28;20498;-78
2022/01/11 17:58:16;;;;;;;21.42;10.02;;;3.90;99.90;;;;;;4964962;28;19949;-77
2022/01/11 18:00:42;;;;;;;;;;;3.90;99.90;;;;;;4960898;28;20453;-80
2022/01/11 18:03:11;;;;;;;22.55;9.90;;;3.90;99.90;;;;;;4958810;28;19926;-77